createdAt,value
2022-11-29T00:00:32.840Z,973.97
2022-11-29T00:01:32.841Z,973.94
2022-11-29T00:02:32.987Z,974.07
2022-11-29T00:03:32.829Z,974.01
2022-11-29T00:04:32.786Z,973.99
2022-11-29T00:05:32.776Z,974.10
2022-11-29T00:06:32.761Z,974.06
2022-11-29T00:07:32.771Z,974.04
2022-11-29T00:08:32.728Z,974.08
2022-11-29T00:09:32.719Z,974.05
2022-11-29T00:10:32.704Z,973.99
2022-11-29T00:11:32.687Z,974.00
2022-11-29T00:12:32.675Z,974.07
2022-11-29T00:13:32.661Z,974.06
2022-11-29T00:14:32.652Z,973.98
2022-11-29T00:15:32.633Z,974.03
2022-11-29T00:16:32.675Z,974.13
2022-11-29T00:17:32.612Z,974.09
2022-11-29T00:18:32.594Z,974.10
2022-11-29T00:19:32.612Z,974.13
2022-11-29T00:20:32.573Z,974.11
2022-11-29T00:21:32.555Z,974.07
2022-11-29T00:22:32.549Z,974.04
2022-11-29T00:23:32.527Z,974.04
2022-11-29T00:24:32.618Z,974.00
2022-11-29T00:25:32.503Z,974.00
2022-11-29T00:26:32.491Z,973.99
2022-11-29T00:27:32.470Z,974.00
2022-11-29T00:28:32.457Z,973.99
2022-11-29T00:29:32.444Z,974.04
2022-11-29T00:30:32.705Z,974.02
2022-11-29T00:31:32.416Z,974.05
2022-11-29T00:32:32.416Z,974.04
2022-11-29T00:33:32.397Z,974.05
2022-11-29T00:34:32.383Z,974.03
2022-11-29T00:35:32.393Z,974.01
2022-11-29T00:36:32.353Z,973.97
2022-11-29T00:37:32.334Z,974.00
2022-11-29T00:38:32.326Z,974.07
2022-11-29T00:39:32.312Z,974.04
2022-11-29T00:40:32.297Z,974.00
2022-11-29T00:41:32.284Z,973.97
2022-11-29T00:42:32.272Z,973.97
2022-11-29T00:43:32.258Z,974.01
2022-11-29T00:44:32.247Z,974.05
2022-11-29T00:45:32.228Z,974.05
2022-11-29T00:46:32.217Z,974.02
2022-11-29T00:47:32.204Z,974.02
2022-11-29T00:48:32.193Z,974.05
2022-11-29T00:49:32.173Z,974.08
2022-11-29T00:50:32.166Z,974.00
2022-11-29T00:51:32.171Z,974.00
2022-11-29T00:52:32.138Z,973.99
2022-11-29T00:53:32.120Z,974.01
2022-11-29T00:54:32.109Z,973.99
2022-11-29T00:55:32.197Z,973.98
2022-11-29T00:56:32.082Z,974.07
2022-11-29T00:57:32.064Z,974.06
2022-11-29T00:58:32.058Z,974.08
2022-11-29T00:59:32.037Z,974.09
2022-11-29T01:00:32.022Z,974.12
2022-11-29T01:01:32.069Z,974.09
2022-11-29T01:02:32.015Z,974.09
2022-11-29T01:03:31.988Z,974.09
2022-11-29T01:04:32.022Z,974.12
2022-11-29T01:05:31.959Z,974.15
2022-11-29T01:06:31.942Z,974.16
2022-11-29T01:07:32.035Z,974.15
2022-11-29T01:08:31.924Z,974.03
2022-11-29T01:09:31.905Z,974.06
2022-11-29T01:10:31.890Z,974.12
2022-11-29T01:11:31.878Z,974.03
2022-11-29T01:12:31.872Z,974.11
2022-11-29T01:13:31.853Z,974.11
2022-11-29T01:14:31.843Z,974.10
2022-11-29T01:15:31.821Z,974.11
2022-11-29T01:16:31.936Z,974.08
2022-11-29T01:17:31.796Z,974.16
2022-11-29T01:18:31.789Z,974.16
2022-11-29T01:19:31.771Z,974.15
2022-11-29T01:20:31.761Z,974.17
2022-11-29T01:21:31.744Z,974.07
2022-11-29T01:22:31.727Z,974.11
2022-11-29T01:23:31.734Z,974.15
2022-11-29T01:24:31.697Z,974.11
2022-11-29T01:25:31.682Z,974.08
2022-11-29T01:26:31.674Z,974.09
2022-11-29T01:27:31.661Z,974.06
2022-11-29T01:28:31.644Z,974.08
2022-11-29T01:29:31.627Z,974.07
2022-11-29T01:30:31.648Z,974.12
2022-11-29T01:31:31.611Z,974.04
2022-11-29T01:32:31.591Z,974.07
2022-11-29T01:33:31.575Z,974.15
2022-11-29T01:34:31.570Z,974.13
2022-11-29T01:35:31.906Z,974.20
2022-11-29T01:36:31.543Z,974.14
2022-11-29T01:37:31.529Z,974.06
2022-11-29T01:38:31.517Z,974.11
2022-11-29T01:39:31.568Z,974.10
2022-11-29T01:40:31.482Z,974.13
2022-11-29T01:41:31.467Z,974.08
2022-11-29T01:42:31.452Z,974.12
2022-11-29T01:43:31.439Z,974.07
2022-11-29T01:44:31.428Z,974.10
2022-11-29T01:45:31.414Z,974.12
2022-11-29T01:46:31.451Z,974.11
2022-11-29T01:47:31.392Z,974.10
2022-11-29T01:48:31.376Z,974.09
2022-11-29T01:49:31.367Z,974.09
2022-11-29T01:50:31.349Z,974.12
2022-11-29T01:51:31.330Z,974.09
2022-11-29T01:52:31.317Z,974.10
2022-11-29T01:53:31.302Z,974.06
2022-11-29T01:54:31.294Z,974.08
2022-11-29T01:55:31.378Z,974.10
2022-11-29T01:56:31.266Z,974.18
2022-11-29T01:57:31.256Z,974.11
2022-11-29T01:58:31.238Z,974.10
2022-11-29T01:59:31.229Z,974.13
2022-11-29T02:00:31.214Z,974.13
2022-11-29T02:01:31.297Z,974.10
2022-11-29T02:02:31.266Z,974.09
2022-11-29T02:03:31.168Z,974.08
2022-11-29T02:04:31.158Z,974.09
2022-11-29T02:05:31.141Z,974.11
2022-11-29T02:06:31.126Z,974.09
2022-11-29T02:07:31.173Z,974.10
2022-11-29T02:08:31.104Z,974.09
2022-11-29T02:09:31.090Z,974.08
2022-11-29T02:10:31.072Z,974.08
2022-11-29T02:11:31.099Z,974.06
2022-11-29T02:12:31.048Z,974.09
2022-11-29T02:13:31.034Z,974.09
2022-11-29T02:14:31.022Z,974.07
2022-11-29T02:15:31.100Z,974.00
2022-11-29T02:16:31.000Z,974.12
2022-11-29T02:17:30.983Z,974.09
2022-11-29T02:18:30.965Z,974.12
2022-11-29T02:19:30.957Z,974.12
2022-11-29T02:20:30.938Z,974.09
2022-11-29T02:21:30.927Z,974.14
2022-11-29T02:22:30.908Z,974.11
2022-11-29T02:23:30.903Z,974.11
2022-11-29T02:24:30.884Z,974.19
2022-11-29T02:25:30.875Z,974.12
2022-11-29T02:26:30.864Z,974.15
2022-11-29T02:27:30.870Z,974.10
2022-11-29T02:28:30.829Z,974.18
2022-11-29T02:29:30.815Z,974.10
2022-11-29T02:30:30.816Z,974.12
2022-11-29T02:31:30.792Z,974.13
2022-11-29T02:32:30.777Z,974.12
2022-11-29T02:33:30.763Z,974.12
2022-11-29T02:34:30.744Z,974.14
2022-11-29T02:35:30.739Z,974.11
2022-11-29T02:36:30.726Z,974.12
2022-11-29T02:37:30.709Z,974.16
2022-11-29T02:38:30.699Z,974.08
2022-11-29T02:39:30.683Z,974.11
2022-11-29T02:40:30.664Z,974.10
2022-11-29T02:41:30.654Z,974.10
2022-11-29T02:42:30.643Z,974.14
2022-11-29T02:43:30.646Z,974.16
2022-11-29T02:44:30.609Z,974.09
2022-11-29T02:45:30.598Z,974.10
2022-11-29T02:46:30.618Z,974.10
2022-11-29T02:47:30.573Z,974.15
2022-11-29T02:48:30.555Z,974.21
2022-11-29T02:49:30.542Z,974.15
2022-11-29T02:50:30.526Z,974.18
2022-11-29T02:51:30.516Z,974.14
2022-11-29T02:52:30.505Z,974.21
2022-11-29T02:53:30.489Z,974.14
2022-11-29T02:54:30.477Z,974.15
2022-11-29T02:55:30.459Z,974.19
2022-11-29T02:56:30.452Z,974.15
2022-11-29T02:57:30.435Z,974.18
2022-11-29T02:58:30.422Z,974.21
2022-11-29T02:59:30.435Z,974.22
2022-11-29T03:00:30.395Z,974.16
2022-11-29T03:01:30.412Z,974.15
2022-11-29T03:02:30.412Z,974.12
2022-11-29T03:03:30.361Z,974.21
2022-11-29T03:04:30.348Z,974.21
2022-11-29T03:05:30.332Z,974.23
2022-11-29T03:06:30.316Z,974.18
2022-11-29T03:07:30.344Z,974.23
2022-11-29T03:08:30.281Z,974.20
2022-11-29T03:09:30.268Z,974.16
2022-11-29T03:10:30.256Z,974.12
2022-11-29T03:11:30.251Z,974.20
2022-11-29T03:12:30.228Z,974.20
2022-11-29T03:13:30.216Z,974.13
2022-11-29T03:14:30.207Z,974.18
2022-11-29T03:15:30.267Z,974.23
2022-11-29T03:16:30.175Z,974.20
2022-11-29T03:17:30.169Z,974.26
2022-11-29T03:18:30.150Z,974.27
2022-11-29T03:19:30.139Z,974.34
2022-11-29T03:20:30.120Z,974.30
2022-11-29T03:21:30.113Z,974.30
2022-11-29T03:22:30.093Z,974.28
2022-11-29T03:23:30.078Z,974.35
2022-11-29T03:24:30.067Z,974.30
2022-11-29T03:25:30.055Z,974.34
2022-11-29T03:26:30.037Z,974.34
2022-11-29T03:27:30.032Z,974.24
2022-11-29T03:28:30.022Z,974.33
2022-11-29T03:29:30.006Z,974.31
2022-11-29T03:30:29.986Z,974.27
2022-11-29T03:31:30.096Z,974.32
2022-11-29T03:32:29.965Z,974.29
2022-11-29T03:33:29.947Z,974.30
2022-11-29T03:34:29.929Z,974.27
2022-11-29T03:35:29.919Z,974.32
2022-11-29T03:36:29.905Z,974.28
2022-11-29T03:37:29.893Z,974.25
2022-11-29T03:38:29.878Z,974.28
2022-11-29T03:39:29.871Z,974.34
2022-11-29T03:40:29.847Z,974.29
2022-11-29T03:41:29.840Z,974.33
2022-11-29T03:42:29.829Z,974.28
2022-11-29T03:43:29.819Z,974.29
2022-11-29T03:44:29.800Z,974.21
2022-11-29T03:45:29.790Z,974.30
2022-11-29T03:46:29.841Z,974.37
2022-11-29T03:47:29.776Z,974.32
2022-11-29T03:48:29.739Z,974.29
2022-11-29T03:49:29.727Z,974.32
2022-11-29T03:50:29.712Z,974.32
2022-11-29T03:51:29.702Z,974.34
2022-11-29T03:52:29.688Z,974.27
2022-11-29T03:53:29.680Z,974.27
2022-11-29T03:54:29.659Z,974.30
2022-11-29T03:55:29.754Z,974.29
2022-11-29T03:56:29.630Z,974.34
2022-11-29T03:57:29.619Z,974.32
2022-11-29T03:58:29.609Z,974.34
2022-11-29T03:59:29.595Z,974.35
2022-11-29T04:00:29.575Z,974.42
2022-11-29T04:01:29.593Z,974.42
2022-11-29T04:02:29.653Z,974.37
2022-11-29T04:03:29.559Z,974.42
2022-11-29T04:04:29.520Z,974.36
2022-11-29T04:05:29.513Z,974.40
2022-11-29T04:06:29.498Z,974.41
2022-11-29T04:07:29.577Z,974.35
2022-11-29T04:08:29.465Z,974.36
2022-11-29T04:09:29.455Z,974.28
2022-11-29T04:10:29.439Z,974.27
2022-11-29T04:11:29.426Z,974.32
2022-11-29T04:12:29.414Z,974.35
2022-11-29T04:13:29.401Z,974.38
2022-11-29T04:14:29.383Z,974.39
2022-11-29T04:15:29.376Z,974.41
2022-11-29T04:16:29.359Z,974.39
2022-11-29T04:17:29.346Z,974.42
2022-11-29T04:18:29.334Z,974.39
2022-11-29T04:19:29.346Z,974.44
2022-11-29T04:20:29.304Z,974.35
2022-11-29T04:21:29.292Z,974.48
2022-11-29T04:22:29.272Z,974.44
2022-11-29T04:23:29.270Z,974.53
2022-11-29T04:24:29.249Z,974.51
2022-11-29T04:25:29.240Z,974.56
2022-11-29T04:26:34.672Z,974.54
2022-11-29T04:27:29.210Z,974.52
2022-11-29T04:28:29.197Z,974.57
2022-11-29T04:29:29.180Z,974.50
2022-11-29T04:30:29.173Z,974.54
2022-11-29T04:31:29.196Z,974.55
2022-11-29T04:32:29.142Z,974.46
2022-11-29T04:33:29.132Z,974.45
2022-11-29T04:34:29.118Z,974.49
2022-11-29T04:35:29.124Z,974.53
2022-11-29T04:36:29.088Z,974.56
2022-11-29T04:37:29.067Z,974.56
2022-11-29T04:38:29.059Z,974.59
2022-11-29T04:39:29.049Z,974.61
2022-11-29T04:40:29.031Z,974.64
2022-11-29T04:41:29.019Z,974.59
2022-11-29T04:42:29.010Z,974.62
2022-11-29T04:43:28.996Z,974.64
2022-11-29T04:44:28.975Z,974.59
2022-11-29T04:45:29.009Z,974.59
2022-11-29T04:46:28.980Z,974.60
2022-11-29T04:47:28.934Z,974.59
2022-11-29T04:48:28.919Z,974.56
2022-11-29T04:49:28.909Z,974.61
2022-11-29T04:50:28.894Z,974.63
2022-11-29T04:51:28.899Z,974.62
2022-11-29T04:52:28.875Z,974.68
2022-11-29T04:53:28.849Z,974.65
2022-11-29T04:54:28.836Z,974.61
2022-11-29T04:55:31.093Z,974.65
2022-11-29T04:56:28.809Z,974.69
2022-11-29T04:57:28.801Z,974.66
2022-11-29T04:58:28.782Z,974.71
2022-11-29T04:59:28.770Z,974.74
2022-11-29T05:00:28.756Z,974.71
2022-11-29T05:01:28.758Z,974.81
2022-11-29T05:02:28.742Z,974.75
2022-11-29T05:03:28.720Z,974.73
2022-11-29T05:04:28.700Z,974.70
2022-11-29T05:05:28.691Z,974.76
2022-11-29T05:06:28.677Z,974.71
2022-11-29T05:07:28.716Z,974.73
2022-11-29T05:08:28.649Z,974.84
2022-11-29T05:09:28.627Z,974.81
2022-11-29T05:10:28.613Z,974.81
2022-11-29T05:11:28.602Z,974.70
2022-11-29T05:12:28.586Z,974.73
2022-11-29T05:13:28.578Z,974.78
2022-11-29T05:14:28.565Z,974.75
2022-11-29T05:15:28.546Z,974.78
2022-11-29T05:16:28.595Z,974.75
2022-11-29T05:17:28.528Z,974.82
2022-11-29T05:18:28.509Z,974.78
2022-11-29T05:19:28.494Z,974.75
2022-11-29T05:20:28.473Z,974.79
2022-11-29T05:21:28.465Z,974.86
2022-11-29T05:22:28.446Z,974.71
2022-11-29T05:23:28.463Z,974.86
2022-11-29T05:24:28.416Z,974.80
2022-11-29T05:25:28.412Z,974.77
2022-11-29T05:26:28.396Z,974.73
2022-11-29T05:27:28.378Z,974.77
2022-11-29T05:28:28.365Z,974.81
2022-11-29T05:29:28.356Z,974.75
2022-11-29T05:30:28.335Z,974.77
2022-11-29T05:31:28.358Z,974.84
2022-11-29T05:32:28.310Z,974.79
2022-11-29T05:33:28.295Z,974.82
2022-11-29T05:34:34.515Z,974.73
2022-11-29T05:35:29.291Z,974.77
2022-11-29T05:36:28.254Z,974.76
2022-11-29T05:37:28.245Z,974.81
2022-11-29T05:38:28.227Z,974.74
2022-11-29T05:39:28.245Z,974.82
2022-11-29T05:40:28.203Z,974.77
2022-11-29T05:41:28.198Z,974.82
2022-11-29T05:42:28.179Z,974.85
2022-11-29T05:43:28.165Z,974.81
2022-11-29T05:44:28.147Z,974.81
2022-11-29T05:45:28.136Z,974.89
2022-11-29T05:46:28.195Z,974.83
2022-11-29T05:47:31.338Z,974.82
2022-11-29T05:48:28.097Z,974.85
2022-11-29T05:49:28.092Z,974.82
2022-11-29T05:50:28.105Z,974.83
2022-11-29T05:51:28.061Z,974.79
2022-11-29T05:52:28.037Z,974.87
2022-11-29T05:53:28.029Z,974.80
2022-11-29T05:54:28.018Z,974.86
2022-11-29T05:55:28.021Z,974.88
2022-11-29T05:56:27.983Z,974.89
2022-11-29T05:57:27.975Z,974.89
2022-11-29T05:58:30.468Z,974.94
2022-11-29T05:59:27.942Z,974.90
2022-11-29T06:00:27.936Z,974.99
2022-11-29T06:01:27.930Z,975.05
2022-11-29T06:02:28.071Z,975.00
2022-11-29T06:03:27.895Z,975.09
2022-11-29T06:04:27.880Z,975.08
2022-11-29T06:05:27.871Z,975.03
2022-11-29T06:06:27.855Z,975.11
2022-11-29T06:07:27.904Z,975.06
2022-11-29T06:08:27.832Z,975.08
2022-11-29T06:09:27.815Z,974.99
2022-11-29T06:10:27.800Z,975.03
2022-11-29T06:11:27.832Z,974.99
2022-11-29T06:12:27.778Z,975.09
2022-11-29T06:13:27.754Z,975.05
2022-11-29T06:14:27.744Z,975.08
2022-11-29T06:15:27.728Z,975.07
2022-11-29T06:16:27.789Z,975.08
2022-11-29T06:17:27.707Z,975.12
2022-11-29T06:18:27.692Z,975.08
2022-11-29T06:19:27.678Z,975.07
2022-11-29T06:20:27.665Z,975.09
2022-11-29T06:21:27.652Z,975.12
2022-11-29T06:22:27.637Z,975.14
2022-11-29T06:23:27.620Z,975.17
2022-11-29T06:24:27.607Z,975.15
2022-11-29T06:25:27.589Z,975.14
2022-11-29T06:26:27.579Z,975.20
2022-11-29T06:27:27.589Z,975.20
2022-11-29T06:28:27.576Z,975.18
2022-11-29T06:29:27.544Z,975.19
2022-11-29T06:30:27.545Z,975.25
2022-11-29T06:31:27.683Z,975.21
2022-11-29T06:32:27.497Z,975.28
2022-11-29T06:33:27.489Z,975.30
2022-11-29T06:34:30.722Z,975.32
2022-11-29T06:35:27.456Z,975.26
2022-11-29T06:36:27.439Z,975.31
2022-11-29T06:37:27.426Z,975.33
2022-11-29T06:38:27.414Z,975.38
2022-11-29T06:39:27.398Z,975.34
2022-11-29T06:40:27.390Z,975.29
2022-11-29T06:41:27.375Z,975.31
2022-11-29T06:42:27.359Z,975.34
2022-11-29T06:43:27.371Z,975.35
2022-11-29T06:44:27.335Z,975.43
2022-11-29T06:45:27.325Z,975.38
2022-11-29T06:46:27.437Z,975.42
2022-11-29T06:47:27.295Z,975.42
2022-11-29T06:48:27.286Z,975.44
2022-11-29T06:49:27.269Z,975.41
2022-11-29T06:50:27.250Z,975.48
2022-11-29T06:51:27.240Z,975.46
2022-11-29T06:52:27.228Z,975.43
2022-11-29T06:53:27.215Z,975.44
2022-11-29T06:54:27.204Z,975.49
2022-11-29T06:55:27.194Z,975.58
2022-11-29T06:56:27.175Z,975.58
2022-11-29T06:57:27.157Z,975.55
2022-11-29T06:58:31.449Z,975.53
2022-11-29T06:59:28.176Z,975.50
2022-11-29T07:00:27.199Z,975.53
2022-11-29T07:01:27.149Z,975.53
2022-11-29T07:02:27.129Z,975.55
2022-11-29T07:03:27.074Z,975.52
2022-11-29T07:04:27.065Z,975.56
2022-11-29T07:05:27.050Z,975.58
2022-11-29T07:06:27.037Z,975.62
2022-11-29T07:07:27.076Z,975.59
2022-11-29T07:08:27.014Z,975.61
2022-11-29T07:09:27.000Z,975.56
2022-11-29T07:10:26.982Z,975.60
2022-11-29T07:11:26.970Z,975.61
2022-11-29T07:12:26.953Z,975.67
2022-11-29T07:13:26.941Z,975.67
2022-11-29T07:14:26.930Z,975.57
2022-11-29T07:15:26.938Z,975.59
2022-11-29T07:16:26.961Z,975.61
2022-11-29T07:17:26.888Z,975.56
2022-11-29T07:18:26.877Z,975.61
2022-11-29T07:19:26.855Z,975.66
2022-11-29T07:20:26.846Z,975.62
2022-11-29T07:21:26.834Z,975.61
2022-11-29T07:22:26.822Z,975.70
2022-11-29T07:23:26.808Z,975.60
2022-11-29T07:24:26.790Z,975.68
2022-11-29T07:25:26.773Z,975.68
2022-11-29T07:26:26.766Z,975.80
2022-11-29T07:27:26.754Z,975.77
2022-11-29T07:28:26.738Z,975.72
2022-11-29T07:29:26.726Z,975.78
2022-11-29T07:30:26.809Z,975.76
2022-11-29T07:31:26.757Z,975.81
2022-11-29T07:32:26.691Z,975.76
2022-11-29T07:33:26.665Z,975.81
2022-11-29T07:34:26.651Z,975.78
2022-11-29T07:35:26.643Z,975.78
2022-11-29T07:36:26.636Z,975.82
2022-11-29T07:37:26.614Z,975.86
2022-11-29T07:38:26.611Z,975.80
2022-11-29T07:39:26.587Z,975.78
2022-11-29T07:40:26.726Z,975.78
2022-11-29T07:41:26.566Z,975.82
2022-11-29T07:42:26.547Z,975.76
2022-11-29T07:43:26.541Z,975.74
2022-11-29T07:44:26.525Z,975.80
2022-11-29T07:45:26.511Z,975.78
2022-11-29T07:46:26.520Z,975.79
2022-11-29T07:47:29.085Z,975.74
2022-11-29T07:48:27.490Z,975.82
2022-11-29T07:49:26.452Z,975.79
2022-11-29T07:50:26.475Z,975.79
2022-11-29T07:51:26.430Z,975.82
2022-11-29T07:52:26.416Z,975.77
2022-11-29T07:53:26.399Z,975.80
2022-11-29T07:54:26.387Z,975.85
2022-11-29T07:55:26.376Z,975.89
2022-11-29T07:56:26.360Z,975.89
2022-11-29T07:57:26.348Z,975.96
2022-11-29T07:58:26.380Z,975.95
2022-11-29T07:59:26.323Z,975.89
2022-11-29T08:00:26.348Z,975.90
2022-11-29T08:01:26.320Z,975.88
2022-11-29T08:02:26.381Z,975.91
2022-11-29T08:03:26.283Z,975.90
2022-11-29T08:04:26.254Z,975.90
2022-11-29T08:05:26.233Z,975.99
2022-11-29T08:06:26.227Z,975.94
2022-11-29T08:07:26.249Z,975.99
2022-11-29T08:08:26.204Z,975.98
2022-11-29T08:09:26.184Z,976.00
2022-11-29T08:10:26.170Z,976.01
2022-11-29T08:11:26.165Z,975.98
2022-11-29T08:12:26.144Z,976.02
2022-11-29T08:13:26.132Z,976.05
2022-11-29T08:14:26.114Z,975.98
2022-11-29T08:15:26.099Z,976.03
2022-11-29T08:16:26.195Z,976.11
2022-11-29T08:17:26.070Z,976.02
2022-11-29T08:18:26.060Z,976.04
2022-11-29T08:19:26.076Z,976.08
2022-11-29T08:20:26.038Z,976.08
2022-11-29T08:21:26.020Z,976.07
2022-11-29T08:22:26.013Z,976.00
2022-11-29T08:23:25.994Z,976.09
2022-11-29T08:24:25.983Z,976.10
2022-11-29T08:25:25.970Z,976.14
2022-11-29T08:26:31.191Z,976.08
2022-11-29T08:27:25.933Z,976.08
2022-11-29T08:28:25.921Z,976.13
2022-11-29T08:29:25.906Z,976.06
2022-11-29T08:30:25.894Z,976.09
2022-11-29T08:31:25.942Z,976.05
2022-11-29T08:32:25.874Z,976.01
2022-11-29T08:33:25.860Z,976.10
2022-11-29T08:34:25.846Z,976.10
2022-11-29T08:35:25.860Z,976.11
2022-11-29T08:36:25.816Z,976.16
2022-11-29T08:37:25.812Z,976.12
2022-11-29T08:38:25.793Z,976.11
2022-11-29T08:39:25.778Z,976.09
2022-11-29T08:40:25.769Z,976.09
2022-11-29T08:41:25.750Z,976.13
2022-11-29T08:42:25.736Z,976.18
2022-11-29T08:43:25.723Z,976.15
2022-11-29T08:44:25.711Z,976.16
2022-11-29T08:45:25.769Z,976.16
2022-11-29T08:46:25.727Z,976.13
2022-11-29T08:47:25.690Z,976.22
2022-11-29T08:48:25.663Z,976.20
2022-11-29T08:49:25.638Z,976.20
2022-11-29T08:50:25.649Z,976.21
2022-11-29T08:51:25.629Z,976.20
2022-11-29T08:52:25.599Z,976.24
2022-11-29T08:53:25.586Z,976.19
2022-11-29T08:54:25.575Z,976.20
2022-11-29T08:55:25.558Z,976.25
2022-11-29T08:57:16.419Z,976.29
2022-11-29T08:57:41.908Z,976.25
2022-11-29T08:58:26.535Z,976.23
2022-11-29T08:59:25.505Z,976.27
2022-11-29T09:00:25.497Z,976.29
2022-11-29T09:01:25.550Z,976.29
2022-11-29T09:02:25.544Z,976.35
2022-11-29T09:03:25.457Z,976.31
2022-11-29T09:04:25.443Z,976.33
2022-11-29T09:05:25.426Z,976.33
2022-11-29T09:06:25.413Z,976.37
2022-11-29T09:07:25.463Z,976.34
2022-11-29T09:08:25.383Z,976.28
2022-11-29T09:09:25.368Z,976.33
2022-11-29T09:10:25.351Z,976.30
2022-11-29T09:11:25.340Z,976.28
2022-11-29T09:12:25.324Z,976.26
2022-11-29T09:13:25.312Z,976.27
2022-11-29T09:14:25.308Z,976.36
2022-11-29T09:15:25.292Z,976.34
2022-11-29T09:16:25.393Z,976.37
2022-11-29T09:17:25.265Z,976.38
2022-11-29T09:18:25.251Z,976.32
2022-11-29T09:19:25.235Z,976.33
2022-11-29T09:20:25.216Z,976.41
2022-11-29T09:21:25.203Z,976.30
2022-11-29T09:22:25.190Z,976.33
2022-11-29T09:23:25.203Z,976.39
2022-11-29T09:24:25.174Z,976.39
2022-11-29T09:25:25.152Z,976.39
2022-11-29T09:26:25.147Z,976.35
2022-11-29T09:27:25.130Z,976.35
2022-11-29T09:28:25.122Z,976.39
2022-11-29T09:29:25.103Z,976.38
2022-11-29T09:30:25.125Z,976.41
2022-11-29T09:31:25.115Z,976.36
2022-11-29T09:32:25.052Z,976.38
2022-11-29T09:33:25.040Z,976.41
2022-11-29T09:34:25.027Z,976.41
2022-11-29T09:35:25.008Z,976.39
2022-11-29T09:36:28.524Z,976.43
2022-11-29T09:37:24.989Z,976.41
2022-11-29T09:38:24.975Z,976.48
2022-11-29T09:39:24.989Z,976.45
2022-11-29T09:40:24.951Z,976.51
2022-11-29T09:41:24.936Z,976.49
2022-11-29T09:42:24.926Z,976.50
2022-11-29T09:43:24.908Z,976.46
2022-11-29T09:44:24.900Z,976.58
2022-11-29T09:45:24.879Z,976.55
2022-11-29T09:46:24.872Z,976.61
2022-11-29T09:47:24.851Z,976.53
2022-11-29T09:48:24.885Z,976.50
2022-11-29T09:49:24.823Z,976.48
2022-11-29T09:50:24.810Z,976.44
2022-11-29T09:51:24.794Z,976.45
2022-11-29T09:52:24.785Z,976.50
2022-11-29T09:53:24.766Z,976.47
2022-11-29T09:54:24.757Z,976.47
2022-11-29T09:55:24.764Z,976.45
2022-11-29T09:56:24.735Z,976.50
2022-11-29T09:57:24.718Z,976.51
2022-11-29T09:58:24.707Z,976.52
2022-11-29T09:59:24.692Z,976.53
2022-11-29T10:00:24.673Z,976.50
2022-11-29T10:01:24.818Z,976.52
2022-11-29T10:02:24.689Z,976.51
2022-11-29T10:03:24.630Z,976.57
2022-11-29T10:04:24.620Z,976.56
2022-11-29T10:05:24.608Z,976.53
2022-11-29T10:06:24.607Z,976.55
2022-11-29T10:07:24.668Z,976.51
2022-11-29T10:08:24.569Z,976.53
2022-11-29T10:09:24.553Z,976.56
2022-11-29T10:10:24.540Z,976.50
2022-11-29T10:11:24.565Z,976.52
2022-11-29T10:12:24.509Z,976.50
2022-11-29T10:13:24.497Z,976.47
2022-11-29T10:14:24.480Z,976.53
2022-11-29T10:15:24.465Z,976.51
2022-11-29T10:16:24.565Z,976.55
2022-11-29T10:17:24.443Z,976.48
2022-11-29T10:18:24.427Z,976.52
2022-11-29T10:19:24.425Z,976.55
2022-11-29T10:20:24.404Z,976.58
2022-11-29T10:21:24.391Z,976.56
2022-11-29T10:22:24.379Z,976.51
2022-11-29T10:23:24.365Z,976.55
2022-11-29T10:24:24.349Z,976.49
2022-11-29T10:25:24.352Z,976.58
2022-11-29T10:26:24.316Z,976.51
2022-11-29T10:27:24.329Z,976.56
2022-11-29T10:28:24.287Z,976.62
2022-11-29T10:29:24.286Z,976.61
2022-11-29T10:30:24.329Z,976.59
2022-11-29T10:31:24.252Z,976.61
2022-11-29T10:32:24.234Z,976.62
2022-11-29T10:33:24.224Z,976.62
2022-11-29T10:34:24.211Z,976.65
2022-11-29T10:35:24.197Z,976.63
2022-11-29T10:36:24.184Z,976.49
2022-11-29T10:37:24.170Z,976.51
2022-11-29T10:38:32.059Z,976.55
2022-11-29T10:39:25.170Z,976.54
2022-11-29T10:40:24.133Z,976.58
2022-11-29T10:41:24.117Z,976.55
2022-11-29T10:42:24.101Z,976.62
2022-11-29T10:43:24.112Z,976.57
2022-11-29T10:44:24.077Z,976.56
2022-11-29T10:45:24.058Z,976.47
2022-11-29T10:46:24.111Z,976.45
2022-11-29T10:47:24.036Z,976.51
2022-11-29T10:48:24.020Z,976.54
2022-11-29T10:49:24.011Z,976.55
2022-11-29T10:50:23.993Z,976.55
2022-11-29T10:51:23.982Z,976.51
2022-11-29T10:52:23.968Z,976.51
2022-11-29T10:53:23.958Z,976.58
2022-11-29T10:54:23.939Z,976.51
2022-11-29T10:55:23.929Z,976.52
2022-11-29T10:56:23.906Z,976.42
2022-11-29T10:57:23.896Z,976.50
2022-11-29T10:58:28.048Z,976.48
2022-11-29T10:59:23.902Z,976.53
2022-11-29T11:00:23.855Z,976.48
2022-11-29T11:01:24.064Z,976.45
2022-11-29T11:02:23.827Z,976.46
2022-11-29T11:03:23.817Z,976.52
2022-11-29T11:04:23.801Z,976.51
2022-11-29T11:05:23.835Z,976.58
2022-11-29T11:06:23.779Z,976.50
2022-11-29T11:07:23.827Z,976.49
2022-11-29T11:08:23.871Z,976.48
2022-11-29T11:09:23.733Z,976.46
2022-11-29T11:10:23.718Z,976.49
2022-11-29T11:11:23.710Z,976.46
2022-11-29T11:12:23.690Z,976.54
2022-11-29T11:13:23.685Z,976.57
2022-11-29T11:14:23.672Z,976.56
2022-11-29T11:15:23.682Z,976.51
2022-11-29T11:16:23.769Z,976.49
2022-11-29T11:17:23.622Z,976.51
2022-11-29T11:18:23.608Z,976.53
2022-11-29T11:19:23.598Z,976.52
2022-11-29T11:20:23.585Z,976.47
2022-11-29T11:21:23.572Z,976.47
2022-11-29T11:22:23.556Z,976.45
2022-11-29T11:23:23.547Z,976.41
2022-11-29T11:24:23.529Z,976.42
2022-11-29T11:25:23.519Z,976.47
2022-11-29T11:26:23.504Z,976.44
2022-11-29T11:27:23.489Z,976.47
2022-11-29T11:28:23.476Z,976.49
2022-11-29T11:29:23.466Z,976.46
2022-11-29T11:30:23.455Z,976.47
2022-11-29T11:31:23.478Z,976.42
2022-11-29T11:32:23.425Z,976.58
2022-11-29T11:33:23.403Z,976.53
2022-11-29T11:34:23.391Z,976.58
2022-11-29T11:35:23.383Z,976.60
2022-11-29T11:36:23.373Z,976.53
2022-11-29T11:37:23.356Z,976.49
2022-11-29T11:38:23.341Z,976.53
2022-11-29T11:39:23.329Z,976.49
2022-11-29T11:40:23.321Z,976.45
2022-11-29T11:41:23.304Z,976.49
2022-11-29T11:42:23.285Z,976.56
2022-11-29T11:43:23.269Z,976.53
2022-11-29T11:44:50.706Z,976.54
2022-11-29T11:45:24.263Z,976.57
2022-11-29T11:46:23.241Z,976.55
2022-11-29T11:47:23.238Z,976.55
2022-11-29T11:48:23.206Z,976.58
2022-11-29T11:49:23.189Z,976.56
2022-11-29T11:50:23.179Z,976.58
2022-11-29T11:51:23.160Z,976.62
2022-11-29T11:52:23.157Z,976.56
2022-11-29T11:53:23.335Z,976.58
2022-11-29T11:54:23.119Z,976.58
2022-11-29T11:55:23.167Z,976.61
2022-11-29T11:56:23.090Z,976.58
2022-11-29T11:57:23.083Z,976.62
2022-11-29T11:58:23.066Z,976.60
2022-11-29T11:59:23.051Z,976.62
2022-11-29T12:00:47.632Z,976.56
2022-11-29T12:01:24.045Z,976.57
2022-11-29T12:02:23.096Z,976.57
2022-11-29T12:03:23.123Z,976.58
2022-11-29T12:04:23.112Z,976.59
2022-11-29T12:05:22.978Z,976.63
2022-11-29T12:06:22.960Z,976.67
2022-11-29T12:07:33.955Z,976.64
2022-11-29T12:08:23.980Z,976.64
2022-11-29T12:09:22.923Z,976.63
2022-11-29T12:10:22.918Z,976.62
2022-11-29T12:11:22.895Z,976.62
2022-11-29T12:12:22.874Z,976.66
2022-11-29T12:13:22.858Z,976.68
2022-11-29T12:14:22.842Z,976.65
2022-11-29T12:15:22.836Z,976.67
2022-11-29T12:16:22.848Z,976.68
2022-11-29T12:17:22.835Z,976.67
2022-11-29T12:18:22.796Z,976.77
2022-11-29T12:19:22.812Z,976.65
2022-11-29T12:20:22.769Z,976.72
2022-11-29T12:21:22.761Z,976.76
2022-11-29T12:22:22.737Z,976.68
2022-11-29T12:23:22.729Z,976.71
2022-11-29T12:24:22.715Z,976.67
2022-11-29T12:25:22.703Z,976.75
2022-11-29T12:26:55.373Z,976.69
2022-11-29T12:27:23.706Z,976.63
2022-11-29T12:28:22.662Z,976.76